Time;durP1;ratioP1;P1;durP2;ratioP2;P2;SDS_P1;SDS_P2;PMS_P1;PMS_P2;Temp;Humidity;BMP_temperature;BMP_pressure;BME280_temperature;BME280_humidity;BME280_pressure;Samples;Min_cycle;Max_cycle;Signal;HPM_P1;HPM_P2
2022/01/28 00:01:04;;;;;;;8.17;1.63;;;;;;;2.73;100.00;100598.66;5005381;28;20225;-74
2022/01/28 00:03:34;;;;;;;2.83;1.00;;;;;;;2.73;100.00;100600.38;5005140;28;20203;-74
2022/01/28 00:06:00;;;;;;;8.30;1.30;;;;;;;2.77;100.00;100604.66;5003615;28;20855;-74
2022/01/28 00:08:27;;;;;;;9.00;1.43;;;;;;;2.73;100.00;100602.94;5004787;28;20862;-74
2022/01/28 00:10:54;;;;;;;7.97;1.53;;;;;;;2.73;100.00;100598.66;5006333;28;20232;-73
2022/01/28 00:13:24;;;;;;;8.17;1.30;;;;;;;2.82;100.00;100608.97;5009321;28;20191;-74
2022/01/28 00:16:35;;;;;;;11.70;1.63;;;;;;;2.77;100.00;100604.66;5008186;28;20275;-74
2022/01/28 00:19:22;;;;;;;4.43;1.27;;;;;;;2.76;100.00;100608.09;5007311;28;20266;-74
2022/01/28 00:38:28;;;;;;;9.03;1.10;;;;;;;2.90;100.00;100626.19;5000322;28;20677;-74
2022/01/28 00:40:55;;;;;;;4.43;0.97;;;;;;;2.88;100.00;100626.19;5001985;28;20212;-74
2022/01/28 00:43:21;;;;;;;9.50;1.47;;;;;;;2.84;100.00;100627.88;5001651;28;20212;-74
2022/01/28 00:45:47;;;;;;;7.43;1.50;;;;;;;2.83;100.00;100633.00;5006239;28;20197;-74
2022/01/28 00:48:14;;;;;;;6.27;1.20;;;;;;;2.85;100.00;100633.91;5000850;28;20232;-74
2022/01/28 00:50:42;;;;;;;4.90;1.40;;;;;;;2.82;100.00;100624.44;5005212;28;20208;-73
2022/01/28 00:53:09;;;;;;;7.10;1.70;;;;;;;2.80;100.00;100641.59;5004181;28;20585;-74
2022/01/28 00:55:36;;;;;;;5.30;1.40;;;;;;;2.84;100.00;100645.06;5004741;28;20200;-73
2022/01/28 00:58:02;;;;;;;5.40;1.10;;;;;;;2.79;100.00;100629.56;4999453;28;20221;-74
2022/01/28 01:00:29;;;;;;;3.90;1.07;;;;;;;2.77;100.00;100641.56;5004390;28;20227;-74
2022/01/28 01:02:56;;;;;;;7.93;1.40;;;;;;;2.77;100.00;100641.56;5003685;28;20203;-74
2022/01/28 01:05:22;;;;;;;7.63;1.43;;;;;;;2.74;100.00;100630.38;5007015;28;20571;-74
2022/01/28 01:07:50;;;;;;;8.37;1.20;;;;;;;2.67;100.00;100639.78;5004630;28;20224;-74
2022/01/28 01:10:17;;;;;;;5.83;1.37;;;;;;;2.61;100.00;100630.31;5006447;28;20217;-75
2022/01/28 01:12:46;;;;;;;6.23;1.50;;;;;;;2.60;100.00;100630.31;5005287;28;20553;-73
2022/01/28 01:15:17;;;;;;;5.43;1.60;;;;;;;2.67;100.00;100637.22;4999098;28;20251;-74
2022/01/28 01:17:53;;;;;;;9.93;1.20;;;;;;;2.67;100.00;100634.63;5002081;28;20234;-75
2022/01/28 01:20:37;;;;;;;6.50;1.43;;;;;;;2.73;100.00;100651.88;5003340;28;20200;-73
2022/01/28 01:23:09;;;;;;;6.17;1.27;;;;;;;2.78;100.00;100663.03;5006008;28;20209;-74
2022/01/28 01:25:44;;;;;;;5.03;1.40;;;;;;;2.80;100.00;100662.19;5005824;28;20209;-73
2022/01/28 01:28:11;;;;;;;7.30;1.37;;;;;;;2.78;100.00;100648.47;5008246;28;20218;-74
2022/01/28 01:30:41;;;;;;;8.37;1.60;;;;;;;2.77;100.00;100657.03;5007771;28;20794;-73
2022/01/28 01:33:08;;;;;;;5.07;1.27;;;;;;;2.82;100.00;100651.91;5000321;28;20281;-74
2022/01/28 01:35:35;;;;;;;6.77;1.40;;;;;;;2.83;100.00;100656.19;5006773;28;20576;-73
2022/01/28 01:38:02;;;;;;;4.67;1.43;;;;;;;2.87;100.00;100664.78;5007156;28;20241;-74
2022/01/28 01:40:34;;;;;;;6.60;1.70;;;;;;;2.89;100.00;100673.41;5003295;28;20738;-74
2022/01/28 01:43:10;;;;;;;5.63;1.33;;;;;;;2.94;100.00;100675.16;5008739;28;20207;-73
2022/01/28 01:53:48;;;;;;;4.30;1.20;;;;;;;2.92;100.00;100676.88;5008660;28;20226;-74
2022/01/28 01:56:17;;;;;;;8.00;1.40;;;;;;;2.93;100.00;100680.31;5007655;28;20208;-74
2022/01/28 01:58:43;;;;;;;5.43;1.37;;;;;;;2.92;100.00;100689.75;5011509;28;20232;-74
2022/01/28 02:01:10;;;;;;;8.97;2.10;;;;;;;2.89;100.00;100681.16;5006536;28;20287;-73
2022/01/28 02:03:36;;;;;;;6.47;1.60;;;;;;;2.94;100.00;100707.78;5008647;28;20696;-73
2022/01/28 02:06:03;;;;;;;8.60;1.50;;;;;;;2.95;100.00;100694.91;5009579;28;20197;-73
2022/01/28 02:08:33;;;;;;;5.00;1.57;;;;;;;2.95;100.00;100699.19;5007960;28;20228;-74
2022/01/28 02:11:00;;;;;;;6.93;1.37;;;;;;;2.94;100.00;100700.91;5006604;28;20231;-74
2022/01/28 02:13:30;;;;;;;4.93;1.30;;;;;;;2.99;100.00;100700.94;5005485;28;21491;-74
2022/01/28 02:15:57;;;;;;;8.20;1.40;;;;;;;2.97;100.00;100703.53;5006233;28;20197;-74
2022/01/28 02:18:25;;;;;;;10.80;2.10;;;;;;;2.98;100.00;100714.69;5003616;28;20243;-74
2022/01/28 02:20:56;;;;;;;7.73;1.67;;;;;;;2.93;100.00;100712.06;5009704;28;20196;-74
2022/01/28 02:23:23;;;;;;;5.80;1.50;;;;;;;2.90;100.00;100714.59;5008172;28;20686;-74
2022/01/28 02:25:50;;;;;;;4.97;1.50;;;;;;;2.93;100.00;100712.06;5011867;28;20219;-73
2022/01/28 02:28:17;;;;;;;11.83;1.90;;;;;;;2.92;100.00;100723.22;5007406;28;20229;-73
2022/01/28 02:30:44;;;;;;;6.73;1.60;;;;;;;2.92;100.00;100723.22;5008940;28;20226;-73
2022/01/28 02:33:13;;;;;;;7.10;1.00;;;;;;;2.93;100.00;100726.66;5007234;28;20284;-74
2022/01/28 02:35:42;;;;;;;8.57;1.60;;;;;;;2.92;100.00;100717.19;5006844;28;20688;-73
2022/01/28 02:38:10;;;;;;;7.17;1.50;;;;;;;2.89;100.00;100740.38;5008684;28;20224;-74
2022/01/28 02:40:37;;;;;;;10.17;1.50;;;;;;;2.86;100.00;100723.19;5007050;28;20220;-74
2022/01/28 02:43:13;;;;;;;6.77;1.50;;;;;;;2.75;100.00;100711.94;5005141;28;20706;-73
2022/01/28 02:45:41;;;;;;;7.63;1.40;;;;;;;2.72;100.00;100722.22;5001017;28;20278;-74
2022/01/28 02:48:15;;;;;;;6.07;1.33;;;;;;;2.72;100.00;100735.94;5007170;28;20248;-73
2022/01/28 02:50:47;;;;;;;6.80;1.63;;;;;;;2.71;100.00;100723.94;5006082;28;20225;-74
2022/01/28 02:53:22;;;;;;;9.63;1.73;;;;;;;2.68;100.00;100731.63;5008314;28;20672;-74
2022/01/28 02:55:56;;;;;;;7.17;1.83;;;;;;;2.72;100.00;100741.09;5004508;28;20213;-74
2022/01/28 02:58:24;;;;;;;7.80;1.53;;;;;;;2.74;100.00;100749.69;5007143;28;20307;-74
2022/01/28 03:00:52;;;;;;;6.00;1.40;;;;;;;2.70;100.00;100749.66;5005927;28;20295;-73
2022/01/28 03:03:22;;;;;;;10.20;1.50;;;;;;;2.71;100.00;100753.94;5005725;28;20589;-74
2022/01/28 03:05:49;;;;;;;6.63;1.23;;;;;;;2.70;100.00;100767.69;5004988;28;20211;-74
2022/01/28 03:08:18;;;;;;;9.57;1.43;;;;;;;2.76;100.00;100767.72;5007683;28;20216;-74
2022/01/28 03:11:14;;;;;;;7.93;1.60;;;;;;;2.78;100.00;100764.34;5005454;28;20241;-74
2022/01/28 03:16:22;;;;;;;7.83;1.73;;;;;;;2.74;100.00;100772.00;5002821;28;20267;-74
2022/01/28 03:18:52;;;;;;;3.67;1.37;;;;;;;2.73;100.00;100765.16;5006292;28;20593;-74
2022/01/28 03:21:24;;;;;;;6.90;1.63;;;;;;;2.73;100.00;100796.91;5008673;28;20589;-74
2022/01/28 03:23:52;;;;;;;9.07;1.43;;;;;;;2.78;100.00;100784.06;5006500;28;20227;-74
2022/01/28 03:26:18;;;;;;;10.23;1.30;;;;;;;2.69;100.00;100783.97;5008452;28;20204;-73
2022/01/28 03:28:45;;;;;;;3.27;1.50;;;;;;;2.61;100.00;100789.06;5005479;28;20218;-74
2022/01/28 03:31:11;;;;;;;6.30;1.30;;;;;;;2.59;100.00;100793.34;5007933;28;20220;-74
2022/01/28 03:33:38;;;;;;;7.80;1.70;;;;;;;2.59;100.00;100791.63;5004945;28;20207;-74
2022/01/28 03:36:08;;;;;;;9.93;1.73;;;;;;;2.57;100.00;100795.03;5005818;28;20196;-74
2022/01/28 03:38:35;;;;;;;7.50;1.50;;;;;;;2.51;100.00;100800.97;5005641;28;20740;-73
2022/01/28 03:41:03;;;;;;;9.33;1.60;;;;;;;2.45;100.00;100806.09;5008881;28;20188;-74
2022/01/28 03:43:29;;;;;;;6.97;1.50;;;;;;;2.50;100.00;100798.38;5002936;28;20862;-73
2022/01/28 03:45:55;;;;;;;7.77;1.67;;;;;;;2.49;100.00;100794.09;5007517;28;20204;-73
2022/01/28 03:48:22;;;;;;;7.87;1.53;;;;;;;2.48;100.00;100811.28;5007335;28;20220;-74
2022/01/28 03:50:51;;;;;;;8.87;1.67;;;;;;;2.49;100.00;100825.84;5005511;28;20243;-74
2022/01/28 03:53:18;;;;;;;6.43;1.90;;;;;;;2.52;100.00;100823.31;5004508;28;20208;-74
2022/01/28 03:55:46;;;;;;;11.10;1.90;;;;;;;2.52;100.00;100817.31;5006828;28;20215;-74
2022/01/28 03:58:14;;;;;;;8.23;1.60;;;;;;;2.55;100.00;100825.03;5005623;28;20777;-74
2022/01/28 04:00:40;;;;;;;6.33;1.83;;;;;;;2.50;100.00;100829.28;5007029;28;20199;-74
2022/01/28 04:03:11;;;;;;;6.53;1.77;;;;;;;2.53;100.00;100844.75;5002657;28;20188;-74
2022/01/28 04:13:53;;;;;;;10.63;1.63;;;;;;;2.46;100.00;100867.88;5007637;28;20200;-74
2022/01/28 04:16:31;;;;;;;8.20;2.10;;;;;;;2.40;100.00;100866.94;5004919;28;20267;-73
2022/01/28 04:19:01;;;;;;;9.57;1.53;;;;;;;2.47;100.00;100868.72;5007119;28;20220;-74
2022/01/28 04:21:28;;;;;;;8.43;1.60;;;;;;;2.47;100.00;100876.44;5009461;28;20256;-74
2022/01/28 04:23:54;;;;;;;7.97;1.67;;;;;;;2.43;100.00;100885.84;5007714;28;20581;-74
2022/01/28 04:26:21;;;;;;;6.80;1.93;;;;;;;2.45;100.00;100883.28;5001994;28;20236;-73
2022/01/28 04:28:47;;;;;;;13.53;1.90;;;;;;;2.44;100.00;100894.44;5005151;28;20582;-74
2022/01/28 04:31:15;;;;;;;10.50;1.50;;;;;;;2.47;100.00;100887.59;5003065;28;20637;-74
2022/01/28 04:33:41;;;;;;;7.60;1.37;;;;;;;2.47;100.00;100894.47;5007464;28;20800;-73
2022/01/28 04:36:11;;;;;;;10.40;1.87;;;;;;;2.43;100.00;100885.84;5005706;28;20208;-73
2022/01/28 04:38:44;;;;;;;8.70;1.57;;;;;;;2.38;100.00;100891.78;5005455;28;20309;-74
2022/01/28 04:41:17;;;;;;;8.70;1.67;;;;;;;2.44;100.00;100904.72;5005715;28;20220;-74
2022/01/28 04:43:48;;;;;;;14.50;2.20;;;;;;;2.44;100.00;100905.56;5002912;28;20217;-74
2022/01/28 04:46:27;;;;;;;8.37;1.97;;;;;;;2.47;100.00;100915.06;5004722;28;20691;-73
2022/01/28 04:49:00;;;;;;;9.10;1.87;;;;;;;2.44;100.00;100913.28;5002706;28;20220;-74
2022/01/28 04:51:44;;;;;;;10.03;1.80;;;;;;;2.45;100.00;100915.03;5005831;28;20224;-74
2022/01/28 04:54:23;;;;;;;12.10;1.70;;;;;;;2.49;100.00;100925.38;5003743;28;20212;-74
2022/01/28 04:56:58;;;;;;;11.97;1.77;;;;;;;2.49;100.00;100926.22;5006727;28;20204;-73
2022/01/28 04:59:43;;;;;;;13.93;1.60;;;;;;;2.51;100.00;100936.56;5005950;28;20216;-73
2022/01/28 05:02:47;;;;;;;8.27;2.07;;;;;;;2.51;100.00;100934.84;5007018;28;20200;-74
2022/01/28 05:05:44;;;;;;;4.43;1.60;;;;;;;2.55;100.00;100946.03;5007197;28;20283;-74
2022/01/28 05:08:37;;;;;;;10.53;1.60;;;;;;;2.57;100.00;100939.19;5004575;28;20251;-73
2022/01/28 05:11:42;;;;;;;12.80;1.70;;;;;;;2.60;99.85;100955.56;5004803;28;20221;-74
2022/01/28 05:14:31;;;;;;;11.20;2.37;;;;;;;2.63;98.40;100953.00;5005284;28;20205;-74
2022/01/28 05:23:18;;;;;;;8.53;1.67;;;;;;;2.62;99.43;100959.00;5005493;28;20205;-73
2022/01/28 05:25:51;;;;;;;10.23;1.60;;;;;;;2.58;100.00;100964.09;5005048;28;20216;-73
2022/01/28 05:28:20;;;;;;;7.57;1.60;;;;;;;2.59;100.00;100970.97;5015556;28;20640;-74
2022/01/28 05:30:47;;;;;;;12.60;1.63;;;;;;;2.57;100.00;100975.22;5010771;28;20213;-74
2022/01/28 05:33:14;;;;;;;11.90;1.60;;;;;;;2.57;100.00;100976.09;5000504;28;20200;-74
2022/01/28 05:35:42;;;;;;;11.50;1.60;;;;;;;2.55;100.00;100982.06;5006615;28;20205;-74
2022/01/28 05:38:08;;;;;;;4.37;1.17;;;;;;;2.57;100.00;100988.97;5009855;28;20227;-74
2022/01/28 05:40:35;;;;;;;8.10;1.33;;;;;;;2.59;99.95;100989.84;5006603;28;20212;-74
2022/01/28 05:43:01;;;;;;;8.17;1.50;;;;;;;2.59;99.91;100989.00;5003856;28;20201;-73
2022/01/28 05:45:28;;;;;;;7.97;1.60;;;;;;;2.58;100.00;100984.69;5004305;28;20204;-74
2022/01/28 05:47:55;;;;;;;5.80;1.50;;;;;;;2.56;100.00;100984.66;5007352;28;20232;-74
2022/01/28 05:50:21;;;;;;;7.10;1.20;;;;;;;2.58;100.00;100992.41;5006987;28;20208;-74
2022/01/28 05:52:49;;;;;;;5.23;1.60;;;;;;;2.59;99.95;100989.84;5007737;28;20201;-74
2022/01/28 05:55:15;;;;;;;11.87;2.03;;;;;;;2.55;100.00;100995.81;5009905;28;20295;-74
2022/01/28 05:57:44;;;;;;;3.47;1.60;;;;;;;2.54;100.00;101014.69;5010043;28;20232;-74
2022/01/28 06:00:11;;;;;;;9.90;1.57;;;;;;;2.56;100.00;101009.56;5017377;28;20262;-74
2022/01/28 06:02:43;;;;;;;7.50;1.33;;;;;;;2.54;100.00;101013.81;5029458;28;20720;-73
2022/01/28 06:05:09;;;;;;;6.50;1.63;;;;;;;2.55;100.00;101012.97;5026471;28;20196;-74
2022/01/28 06:07:41;;;;;;;6.47;1.63;;;;;;;2.53;100.00;101014.66;5025633;28;20239;-74
2022/01/28 06:10:10;;;;;;;8.40;1.77;;;;;;;2.51;100.00;101030.06;5025935;28;21404;-74
2022/01/28 06:12:41;;;;;;;6.93;1.60;;;;;;;2.48;100.00;101030.06;5028798;28;20221;-74
2022/01/28 06:15:08;;;;;;;13.67;2.50;;;;;;;2.48;100.00;101048.06;5028929;28;20345;-74
2022/01/28 06:17:34;;;;;;;8.10;1.73;;;;;;;2.50;100.00;101046.38;5026572;28;20219;-74
2022/01/28 06:20:01;;;;;;;5.80;1.50;;;;;;;2.50;100.00;101051.53;5025672;28;20203;-74
2022/01/28 06:22:28;;;;;;;7.43;1.57;;;;;;;2.49;100.00;101054.09;5026955;28;20228;-74
2022/01/28 06:24:54;;;;;;;6.20;1.50;;;;;;;2.51;100.00;101054.97;5026137;28;20673;-74
2022/01/28 06:27:23;;;;;;;9.63;1.97;;;;;;;2.50;100.00;101063.50;5029796;28;20196;-74
2022/01/28 06:29:49;;;;;;;10.67;2.10;;;;;;;2.48;100.00;101063.53;5025296;28;20269;-74
2022/01/28 06:32:16;;;;;;;4.67;1.33;;;;;;;2.46;100.00;101063.50;5020145;28;20222;-74
2022/01/28 06:34:42;;;;;;;10.53;2.00;;;;;;;2.46;100.00;101073.78;5026950;28;20262;-74
2022/01/28 06:37:09;;;;;;;7.10;1.67;;;;;;;2.45;100.00;101082.34;5025885;28;20219;-74
2022/01/28 06:39:35;;;;;;;14.33;2.23;;;;;;;2.45;100.00;101089.22;5028245;28;20231;-74
2022/01/28 06:42:02;;;;;;;11.03;1.80;;;;;;;2.43;100.00;101088.31;5026681;28;20214;-74
2022/01/28 06:44:31;;;;;;;12.53;2.30;;;;;;;2.41;100.00;101090.88;5034827;28;20196;-73
2022/01/28 06:46:58;;;;;;;8.37;1.80;;;;;;;2.41;100.00;101093.44;5026658;28;20207;-74
2022/01/28 06:49:24;;;;;;;10.33;1.50;;;;;;;2.40;100.00;101098.56;5032014;28;20220;-74
2022/01/28 06:51:51;;;;;;;9.20;2.07;;;;;;;2.40;100.00;101099.41;5025508;28;20228;-74
2022/01/28 06:54:17;;;;;;;13.77;2.30;;;;;;;2.40;100.00;101116.59;5030455;28;20286;-74
2022/01/28 06:56:44;;;;;;;8.67;2.17;;;;;;;2.39;100.00;101115.72;5022423;28;20558;-74
2022/01/28 06:59:11;;;;;;;14.53;2.53;;;;;;;2.42;100.00;101125.19;5031372;28;20270;-74
2022/01/28 07:01:41;;;;;;;8.50;1.63;;;;;;;2.41;100.00;101134.63;5028962;28;20188;-74
2022/01/28 07:04:08;;;;;;;8.97;1.43;;;;;;;2.41;100.00;101144.91;5030787;28;20210;-74
2022/01/28 07:06:35;;;;;;;9.43;1.90;;;;;;;2.44;100.00;101150.09;5026088;28;20204;-74
2022/01/28 07:09:01;;;;;;;7.43;1.53;;;;;;;2.43;100.00;101145.81;5026669;28;20281;-74
2022/01/28 07:11:27;;;;;;;10.47;2.50;;;;;;;2.40;100.00;101155.19;5023890;28;20624;-74
2022/01/28 07:13:54;;;;;;;8.90;2.40;;;;;;;2.38;100.00;101150.00;5027036;28;20212;-73
2022/01/28 07:16:20;;;;;;;14.63;2.40;;;;;;;2.38;100.00;101155.16;5028719;28;20275;-74
2022/01/28 07:18:48;;;;;;;8.83;2.80;;;;;;;2.39;100.00;101163.75;5026668;28;20227;-73
2022/01/28 07:21:14;;;;;;;10.17;2.20;;;;;;;2.41;100.00;101170.66;5029856;28;20191;-74
2022/01/28 07:23:40;;;;;;;7.13;2.10;;;;;;;2.44;100.00;101177.56;5029816;28;20199;-73
2022/01/28 07:26:07;;;;;;;8.70;2.73;;;;;;;2.44;100.00;101183.56;5027901;28;20553;-74
2022/01/28 07:28:35;;;;;;;9.10;1.93;;;;;;;2.43;100.00;101181.84;5025382;28;20225;-74
2022/01/28 07:31:01;;;;;;;10.50;2.67;;;;;;;2.44;100.00;101191.28;5026947;28;20219;-74
2022/01/28 07:33:28;;;;;;;7.50;1.53;;;;;;;2.46;100.00;101193.88;5028741;28;20354;-74
2022/01/28 07:35:56;;;;;;;7.40;1.80;;;;;;;2.47;100.00;101201.63;5033569;28;20196;-74
2022/01/28 07:38:24;;;;;;;11.07;1.90;;;;;;;2.47;100.00;101188.75;5025876;28;20705;-74
2022/01/28 07:40:50;;;;;;;6.97;1.47;;;;;;;2.47;100.00;101198.19;5029528;28;20215;-74
2022/01/28 07:43:17;;;;;;;7.73;1.63;;;;;;;2.50;100.00;101205.09;5026012;28;20748;-73
2022/01/28 07:45:43;;;;;;;13.73;1.83;;;;;;;2.49;100.00;101221.41;5027699;28;20845;-74
2022/01/28 07:48:10;;;;;;;13.13;2.40;;;;;;;2.50;100.00;101224.00;5024178;28;20215;-74
2022/01/28 07:50:36;;;;;;;9.53;1.60;;;;;;;2.53;100.00;101218.88;5024210;28;20196;-74
2022/01/28 07:53:05;;;;;;;7.37;1.87;;;;;;;2.55;100.00;101214.66;5022380;28;20212;-74
2022/01/28 07:55:31;;;;;;;9.40;2.20;;;;;;;2.56;100.00;101224.09;5027597;28;20208;-74
2022/01/28 07:57:58;;;;;;;9.47;2.37;;;;;;;2.57;100.00;101237.81;5029975;28;20220;-74
2022/01/28 08:00:27;;;;;;;12.97;1.93;;;;;;;2.56;100.00;101231.81;5023780;28;20681;-74
2022/01/28 08:02:53;;;;;;;6.87;1.70;;;;;;;2.61;100.00;101237.91;5033494;28;20223;-74
2022/01/28 08:05:19;;;;;;;12.63;2.30;;;;;;;2.63;100.00;101248.22;5028385;28;20204;-74
2022/01/28 08:07:47;;;;;;;9.83;2.23;;;;;;;2.65;100.00;101246.53;5024078;28;20235;-73
2022/01/28 08:10:16;;;;;;;10.50;2.30;;;;;;;2.71;99.87;101258.66;5023423;28;20220;-74
2022/01/28 08:12:47;;;;;;;13.90;3.07;;;;;;;2.72;100.00;101258.66;5027663;28;20222;-74
2022/01/28 08:15:14;;;;;;;16.20;2.60;;;;;;;2.73;100.00;101264.72;5027437;28;20218;-74
2022/01/28 08:17:40;;;;;;;14.53;2.30;;;;;;;2.77;98.95;101277.66;5024232;28;20238;-74
2022/01/28 08:20:08;;;;;;;11.63;1.93;;;;;;;2.79;100.00;101275.94;5023944;28;20204;-74
2022/01/28 08:22:43;;;;;;;12.17;2.17;;;;;;;2.80;99.59;101289.72;5028139;28;20695;-74
2022/01/28 08:25:10;;;;;;;13.00;2.40;;;;;;;2.82;99.35;101278.59;5024510;28;20210;-74
2022/01/28 08:27:37;;;;;;;13.73;2.53;;;;;;;2.85;99.25;101295.81;5028534;28;20235;-74
2022/01/28 08:30:05;;;;;;;5.83;1.57;;;;;;;2.88;98.03;101302.72;5027193;28;20283;-74
2022/01/28 08:32:31;;;;;;;17.17;2.20;;;;;;;2.90;97.64;101317.34;5024259;28;20212;-74
2022/01/28 08:34:57;;;;;;;11.70;1.93;;;;;;;2.93;96.91;101322.53;5023706;28;20204;-74
2022/01/28 08:37:24;;;;;;;8.80;2.07;;;;;;;2.94;96.82;101324.28;5025961;28;20239;-74
2022/01/28 08:39:50;;;;;;;15.70;3.83;;;;;;;2.95;97.29;101326.00;5022705;28;20222;-74
2022/01/28 08:42:16;;;;;;;9.50;2.57;;;;;;;2.97;98.18;101331.19;5026583;28;20230;-74
2022/01/28 08:44:44;;;;;;;7.10;1.73;;;;;;;2.99;97.81;101334.66;5023433;28;20192;-74
2022/01/28 08:47:10;;;;;;;10.23;1.87;;;;;;;3.00;98.75;101341.56;5031877;28;20200;-74
2022/01/28 08:49:37;;;;;;;16.97;2.20;;;;;;;3.01;98.39;101344.16;5023341;28;20769;-74
2022/01/28 08:52:04;;;;;;;15.23;2.20;;;;;;;3.04;98.59;101353.63;5023870;28;20590;-74
2022/01/28 08:54:30;;;;;;;11.33;2.23;;;;;;;3.03;96.78;101360.50;5028034;28;20724;-74
2022/01/28 08:56:56;;;;;;;12.67;2.10;;;;;;;3.06;97.40;101356.25;5028499;28;20212;-74
2022/01/28 08:59:23;;;;;;;7.77;1.80;;;;;;;3.09;97.28;101372.63;5030340;28;20262;-74
2022/01/28 09:01:50;;;;;;;8.90;2.63;;;;;;;3.10;97.57;101378.66;5033655;28;20237;-74
2022/01/28 09:04:18;;;;;;;8.93;2.70;;;;;;;3.10;97.57;101381.25;5034073;28;20215;-74
2022/01/28 09:06:44;;;;;;;14.30;1.93;;;;;;;3.14;95.61;101377.84;5027040;28;20922;-74
2022/01/28 09:09:11;;;;;;;20.30;2.87;;;;;;;3.14;95.92;101385.59;5032584;28;20219;-74
2022/01/28 09:11:52;;;;;;;16.27;2.63;;;;;;;3.18;96.85;101400.25;5029931;28;20216;-74
2022/01/28 09:14:19;;;;;;;10.67;2.00;;;;;;;3.17;97.06;101391.66;5028111;28;20200;-74
2022/01/28 09:16:46;;;;;;;10.33;2.27;;;;;;;3.20;96.39;101394.28;5028441;28;20865;-74
2022/01/28 09:19:14;;;;;;;12.90;2.50;;;;;;;3.23;95.39;101402.06;5029728;28;20220;-74
2022/01/28 09:21:40;;;;;;;10.20;2.27;;;;;;;3.26;95.90;101408.97;5029985;28;20204;-74
2022/01/28 09:24:07;;;;;;;12.13;2.37;;;;;;;3.27;94.63;101415.00;5033001;28;20204;-74
2022/01/28 09:26:34;;;;;;;7.50;1.60;;;;;;;3.27;96.18;101408.13;5029052;28;20303;-74
2022/01/28 09:29:00;;;;;;;8.90;2.17;;;;;;;3.32;95.83;101421.09;5029120;28;20216;-74
2022/01/28 09:31:27;;;;;;;10.27;1.70;;;;;;;3.34;94.99;101429.72;5028374;28;20720;-74
2022/01/28 09:33:53;;;;;;;13.63;2.60;;;;;;;3.38;94.87;101432.38;5030101;28;20204;-74
2022/01/28 09:36:21;;;;;;;12.57;2.17;;;;;;;3.40;93.99;101435.84;5028457;28;20572;-74
2022/01/28 09:38:48;;;;;;;10.13;2.33;;;;;;;3.42;93.88;101443.63;5033220;28;20230;-74
2022/01/28 09:41:15;;;;;;;14.23;2.27;;;;;;;3.48;93.02;101450.56;5024405;28;20207;-74
2022/01/28 09:43:43;;;;;;;16.87;2.37;;;;;;;3.48;93.17;101442.84;5026553;28;20188;-74
2022/01/28 09:46:10;;;;;;;11.33;2.00;;;;;;;3.50;92.95;101451.47;5026288;28;20204;-74
2022/01/28 09:48:37;;;;;;;11.00;2.50;;;;;;;3.52;91.28;101466.13;5027274;28;20235;-73
2022/01/28 09:51:04;;;;;;;12.70;2.47;;;;;;;3.55;91.46;101468.75;5027151;28;20196;-74
2022/01/28 09:53:32;;;;;;;16.60;2.70;;;;;;;3.56;89.92;101475.63;5028313;28;20220;-74
2022/01/28 09:55:59;;;;;;;15.17;3.30;;;;;;;3.57;90.18;101481.66;5028979;28;20192;-74
2022/01/28 09:58:26;;;;;;;16.27;2.83;;;;;;;3.56;89.36;101472.22;5030905;28;20711;-74
2022/01/28 10:00:53;;;;;;;11.63;2.17;;;;;;;3.57;88.32;101486.81;5027743;28;20231;-74
2022/01/28 10:03:20;;;;;;;13.43;2.60;;;;;;;3.60;87.78;101495.47;5024430;28;20601;-74
2022/01/28 10:05:50;;;;;;;14.77;2.77;;;;;;;3.65;89.95;101490.41;5027125;28;20208;-74
2022/01/28 10:08:18;;;;;;;9.40;2.50;;;;;;;3.66;87.67;101505.03;5025961;28;20234;-74
2022/01/28 10:10:55;;;;;;;11.20;2.23;;;;;;;3.67;86.80;101508.47;5027334;28;20208;-74
2022/01/28 10:13:31;;;;;;;11.40;2.70;;;;;;;3.72;87.00;101515.44;5024646;28;20254;-74
2022/01/28 10:16:04;;;;;;;8.97;2.53;;;;;;;3.73;87.64;101511.16;5028204;28;20246;-75
2022/01/28 10:18:45;;;;;;;10.83;2.30;;;;;;;3.74;86.22;101516.34;5026502;28;21239;-74
2022/01/28 10:21:30;;;;;;;12.37;2.70;;;;;;;3.73;85.13;101521.47;5028242;28;20205;-74
2022/01/28 10:24:14;;;;;;;22.40;2.60;;;;;;;3.72;86.44;101535.22;5027055;28;20709;-74
2022/01/28 10:26:45;;;;;;;12.63;2.83;;;;;;;3.71;85.41;101538.63;5029032;28;20206;-74
2022/01/28 10:29:14;;;;;;;11.43;2.90;;;;;;;3.74;86.19;101544.72;5027352;28;20251;-74
2022/01/28 10:31:53;;;;;;;11.57;2.43;;;;;;;3.76;83.96;101544.72;5025755;28;20211;-74
2022/01/28 10:34:22;;;;;;;12.43;2.37;;;;;;;3.77;84.60;101549.94;5028264;28;20204;-74
2022/01/28 10:36:51;;;;;;;14.07;2.73;;;;;;;3.76;84.03;101563.69;5023902;28;20204;-74
2022/01/28 10:39:20;;;;;;;12.13;2.40;;;;;;;3.82;84.15;101560.34;5029510;28;20576;-74
2022/01/28 10:42:06;;;;;;;10.43;2.47;;;;;;;3.91;84.66;101557.91;5027596;28;20200;-75
2022/01/28 10:44:32;;;;;;;14.10;3.03;;;;;;;3.93;84.93;101557.91;5031752;28;20557;-74
2022/01/28 10:47:01;;;;;;;15.73;3.37;;;;;;;3.96;84.19;101553.69;5028314;28;20203;-74
2022/01/28 10:49:31;;;;;;;8.53;2.90;;;;;;;3.99;84.44;101565.75;5030971;28;20298;-74
2022/01/28 10:52:08;;;;;;;11.33;2.50;;;;;;;3.97;82.91;101573.50;5024948;28;20211;-74
2022/01/28 10:54:36;;;;;;;13.07;2.67;;;;;;;3.98;82.96;101595.00;5028506;28;20207;-74
2022/01/28 10:57:04;;;;;;;12.57;2.63;;;;;;;3.87;81.96;101575.88;5025174;28;20224;-74
2022/01/28 10:59:34;;;;;;;8.53;2.37;;;;;;;3.82;83.94;101580.09;5025914;28;20283;-74
2022/01/28 11:02:01;;;;;;;12.20;2.37;;;;;;;3.80;82.45;101574.94;5027703;28;20198;-75
2022/01/28 11:04:28;;;;;;;7.87;2.27;;;;;;;3.79;81.74;101571.44;5028322;28;20211;-75
2022/01/28 11:06:57;;;;;;;14.57;2.50;;;;;;;3.76;82.87;101576.59;5028929;28;20200;-74
2022/01/28 11:09:25;;;;;;;14.73;2.93;;;;;;;3.78;83.22;101592.94;5025503;28;20597;-74
2022/01/28 11:11:52;;;;;;;11.50;2.27;;;;;;;3.81;82.49;101581.81;5026897;28;20641;-74
2022/01/28 11:14:19;;;;;;;10.00;2.13;;;;;;;3.82;82.80;101585.25;5026413;28;20211;-74
2022/01/28 11:16:48;;;;;;;12.77;2.67;;;;;;;3.79;82.30;101589.50;5032614;28;20196;-74
2022/01/28 11:19:17;;;;;;;10.87;2.20;;;;;;;3.76;82.88;101596.31;5025438;28;20226;-74
2022/01/28 11:22:00;;;;;;;13.93;2.30;;;;;;;3.77;82.73;101586.03;5026262;28;20203;-74
2022/01/28 11:24:42;;;;;;;15.43;2.50;;;;;;;3.79;84.27;101581.78;5025644;28;20211;-74
2022/01/28 11:27:18;;;;;;;14.13;2.60;;;;;;;3.84;82.99;101596.47;5026123;28;20207;-74
2022/01/28 11:29:45;;;;;;;11.10;2.37;;;;;;;3.93;82.90;101594.06;5025212;28;20200;-74
2022/01/28 11:32:15;;;;;;;10.10;1.90;;;;;;;3.96;81.76;101607.88;5027059;28;20211;-74
2022/01/28 11:34:58;;;;;;;9.03;2.00;;;;;;;4.09;83.15;101608.06;5025575;28;20557;-74
2022/01/28 11:37:28;;;;;;;11.73;2.20;;;;;;;4.25;82.45;101620.38;5022605;28;20695;-74
2022/01/28 11:39:55;;;;;;;13.43;2.20;;;;;;;4.28;82.06;101611.81;5021941;28;20564;-74
2022/01/28 11:42:27;;;;;;;10.87;1.87;;;;;;;4.26;81.22;101614.38;5035088;28;20250;-74
2022/01/28 11:44:55;;;;;;;11.17;2.00;;;;;;;4.26;80.59;101622.13;5025142;28;20216;-74
2022/01/28 11:47:26;;;;;;;14.43;1.90;;;;;;;4.27;81.13;101612.66;5024284;28;20212;-74
2022/01/28 11:49:55;;;;;;;9.50;2.47;;;;;;;4.26;80.75;101616.09;5023676;28;20669;-74
2022/01/28 11:52:24;;;;;;;12.43;2.10;;;;;;;4.16;80.65;101607.31;5022243;28;20237;-75
2022/01/28 11:54:52;;;;;;;13.70;2.37;;;;;;;4.04;81.19;101615.72;5027128;28;20210;-74
2022/01/28 11:57:21;;;;;;;9.27;2.13;;;;;;;4.05;81.08;101629.53;5024204;28;20204;-74
2022/01/28 11:59:48;;;;;;;8.17;1.93;;;;;;;4.02;80.77;101617.41;5024443;28;20621;-74
2022/01/28 12:02:21;;;;;;;11.33;2.20;;;;;;;4.14;79.64;101625.38;5024739;28;20202;-74
2022/01/28 12:04:51;;;;;;;8.93;1.73;;;;;;;4.25;79.91;101632.41;5031767;28;20212;-74
2022/01/28 12:07:22;;;;;;;10.50;2.00;;;;;;;4.28;78.95;101648.81;5026038;28;20207;-74
2022/01/28 12:09:50;;;;;;;17.70;2.83;;;;;;;4.31;79.99;101645.41;5028215;28;20200;-74
2022/01/28 12:12:25;;;;;;;9.97;2.33;;;;;;;4.29;78.97;101650.56;5029806;28;20218;-74
2022/01/28 12:15:09;;;;;;;12.97;2.10;;;;;;;4.32;79.93;101631.66;5025527;28;20210;-74
2022/01/28 12:17:37;;;;;;;16.23;2.47;;;;;;;4.27;79.89;101638.47;5025122;28;20711;-74